createdAt,value
2022-09-14T00:02:16.158Z,1004.74
2022-09-14T00:17:16.089Z,1004.65
2022-09-14T00:32:16.336Z,1004.59
2022-09-14T00:47:16.291Z,1004.46
2022-09-14T01:02:16.500Z,1004.16
2022-09-14T01:17:16.460Z,1004.13
2022-09-14T01:32:16.585Z,1004.19
2022-09-14T01:47:16.725Z,1004.12
2022-09-14T02:02:16.852Z,1004.10
2022-09-14T02:17:16.849Z,1004.23
2022-09-14T02:32:16.962Z,1004.25
2022-09-14T02:47:17.040Z,1004.03
2022-09-14T03:02:17.211Z,1003.92
2022-09-14T03:17:17.199Z,1003.94
2022-09-14T03:32:17.310Z,1003.92
2022-09-14T03:47:17.489Z,1003.84
2022-09-14T04:02:17.637Z,1003.74
2022-09-14T04:17:17.670Z,1003.90
2022-09-14T04:32:17.832Z,1003.87
2022-09-14T04:47:17.842Z,1003.94
2022-09-14T05:02:18.479Z,1003.80
2022-09-14T05:17:18.981Z,1003.72
2022-09-14T05:32:19.104Z,1003.69
2022-09-14T05:47:19.201Z,1003.65
2022-09-14T06:02:19.401Z,1003.71
2022-09-14T06:17:19.401Z,1003.56
2022-09-14T06:32:19.493Z,1003.49
2022-09-14T06:47:19.562Z,1003.43
2022-09-14T07:02:19.807Z,1003.58
2022-09-14T07:17:19.836Z,1003.57
2022-09-14T07:32:19.943Z,1003.53
2022-09-14T07:47:19.934Z,1003.51
2022-09-14T08:02:20.210Z,1003.56
2022-09-14T08:17:20.113Z,1003.62
2022-09-14T08:32:20.221Z,1003.61
2022-09-14T08:47:20.309Z,1003.38
2022-09-14T09:02:20.468Z,1003.45
2022-09-14T09:17:20.474Z,1003.36
2022-09-14T09:32:20.597Z,1003.31
2022-09-14T09:47:20.678Z,1003.33
2022-09-14T10:02:20.860Z,1003.22
2022-09-14T10:17:20.848Z,1003.13
2022-09-14T10:32:22.244Z,1002.99
2022-09-14T10:47:22.848Z,1002.88
2022-09-14T11:02:23.564Z,1002.81
2022-09-14T11:17:26.837Z,1002.82
2022-09-14T11:32:26.883Z,1002.83
2022-09-14T11:47:27.091Z,1002.60
2022-09-14T12:02:27.177Z,1002.67
2022-09-14T12:17:42.619Z,1002.59
2022-09-14T12:32:32.404Z,1002.56
2022-09-14T12:47:32.389Z,1002.49
2022-09-14T13:02:32.895Z,1002.41
2022-09-14T13:17:34.076Z,1002.23
2022-09-14T13:32:34.210Z,1001.84
2022-09-14T13:47:34.393Z,1001.87
2022-09-14T14:02:34.547Z,1001.95
2022-09-14T14:17:34.553Z,1001.70
2022-09-14T14:32:34.623Z,1001.39
2022-09-14T14:47:34.696Z,1001.57
2022-09-14T15:02:34.802Z,1001.50
2022-09-14T15:17:34.878Z,1001.30
2022-09-14T15:32:35.061Z,1001.17
2022-09-14T15:47:36.629Z,1001.11
2022-09-14T16:02:37.277Z,1001.13
2022-09-14T16:17:37.272Z,1001.18
2022-09-14T16:32:37.865Z,1001.05
